sensor_id;sensor_type;location;lat;lon;timestamp;P1;durP1;ratioP1;P2;durP2;ratioP2
19384;SDS011;9828;54.122;17.974;2022-08-01T00:01:23;3.78;;;2.60;;
19384;SDS011;9828;54.122;17.974;2022-08-01T00:06:44;5.28;;;2.80;;
19384;SDS011;9828;54.122;17.974;2022-08-01T00:12:06;3.92;;;2.67;;
19384;SDS011;9828;54.122;17.974;2022-08-01T00:17:27;4.07;;;2.92;;
19384;SDS011;9828;54.122;17.974;2022-08-01T00:22:49;3.88;;;2.80;;
19384;SDS011;9828;54.122;17.974;2022-08-01T00:28:10;4.57;;;3.10;;
19384;SDS011;9828;54.122;17.974;2022-08-01T00:33:34;6.82;;;2.90;;
19384;SDS011;9828;54.122;17.974;2022-08-01T00:38:55;4.10;;;2.90;;
19384;SDS011;9828;54.122;17.974;2022-08-01T00:44:16;5.60;;;2.80;;
19384;SDS011;9828;54.122;17.974;2022-08-01T00:49:38;3.88;;;3.08;;
19384;SDS011;9828;54.122;17.974;2022-08-01T00:54:59;3.15;;;2.50;;
19384;SDS011;9828;54.122;17.974;2022-08-01T01:00:21;5.85;;;2.83;;
19384;SDS011;9828;54.122;17.974;2022-08-01T01:05:45;5.70;;;3.30;;
19384;SDS011;9828;54.122;17.974;2022-08-01T01:11:17;6.50;;;3.50;;
19384;SDS011;9828;54.122;17.974;2022-08-01T01:16:47;7.57;;;3.35;;
19384;SDS011;9828;54.122;17.974;2022-08-01T01:22:46;4.65;;;3.30;;
19384;SDS011;9828;54.122;17.974;2022-08-01T01:28:25;4.25;;;3.20;;
19384;SDS011;9828;54.122;17.974;2022-08-01T01:33:54;5.45;;;3.92;;
19384;SDS011;9828;54.122;17.974;2022-08-01T01:39:18;3.58;;;2.72;;
19384;SDS011;9828;54.122;17.974;2022-08-01T01:44:42;6.05;;;3.75;;
19384;SDS011;9828;54.122;17.974;2022-08-01T01:50:05;6.65;;;3.30;;
19384;SDS011;9828;54.122;17.974;2022-08-01T01:55:28;5.28;;;2.97;;
19384;SDS011;9828;54.122;17.974;2022-08-01T02:00:51;4.93;;;2.88;;
19384;SDS011;9828;54.122;17.974;2022-08-01T02:06:16;4.65;;;3.10;;
19384;SDS011;9828;54.122;17.974;2022-08-01T02:11:37;5.22;;;3.28;;
19384;SDS011;9828;54.122;17.974;2022-08-01T02:17:00;8.45;;;3.45;;
19384;SDS011;9828;54.122;17.974;2022-08-01T02:22:29;6.38;;;3.58;;
19384;SDS011;9828;54.122;17.974;2022-08-01T02:28:04;4.53;;;2.97;;
19384;SDS011;9828;54.122;17.974;2022-08-01T02:33:39;6.07;;;3.08;;
19384;SDS011;9828;54.122;17.974;2022-08-01T02:39:08;6.70;;;3.47;;
19384;SDS011;9828;54.122;17.974;2022-08-01T02:44:33;5.88;;;3.70;;
19384;SDS011;9828;54.122;17.974;2022-08-01T02:49:59;4.45;;;3.10;;
19384;SDS011;9828;54.122;17.974;2022-08-01T02:55:22;6.68;;;3.60;;
19384;SDS011;9828;54.122;17.974;2022-08-01T03:00:44;4.85;;;3.58;;
19384;SDS011;9828;54.122;17.974;2022-08-01T03:06:07;7.72;;;4.07;;
19384;SDS011;9828;54.122;17.974;2022-08-01T03:11:29;8.35;;;4.00;;
19384;SDS011;9828;54.122;17.974;2022-08-01T03:16:52;5.32;;;4.30;;
19384;SDS011;9828;54.122;17.974;2022-08-01T03:22:16;5.82;;;3.67;;
19384;SDS011;9828;54.122;17.974;2022-08-01T03:27:39;6.57;;;3.97;;
19384;SDS011;9828;54.122;17.974;2022-08-01T03:33:02;4.45;;;3.13;;
19384;SDS011;9828;54.122;17.974;2022-08-01T03:38:25;4.63;;;3.38;;
19384;SDS011;9828;54.122;17.974;2022-08-01T03:44:13;5.93;;;3.97;;
19384;SDS011;9828;54.122;17.974;2022-08-01T03:49:45;7.05;;;5.13;;
19384;SDS011;9828;54.122;17.974;2022-08-01T03:55:09;10.18;;;4.80;;
19384;SDS011;9828;54.122;17.974;2022-08-01T04:00:32;6.30;;;4.25;;
19384;SDS011;9828;54.122;17.974;2022-08-01T04:05:54;7.60;;;4.20;;
19384;SDS011;9828;54.122;17.974;2022-08-01T04:11:15;6.72;;;4.18;;
19384;SDS011;9828;54.122;17.974;2022-08-01T04:16:37;7.88;;;4.55;;
19384;SDS011;9828;54.122;17.974;2022-08-01T04:21:58;6.65;;;4.15;;
19384;SDS011;9828;54.122;17.974;2022-08-01T04:27:25;5.47;;;3.40;;
19384;SDS011;9828;54.122;17.974;2022-08-01T04:32:52;8.55;;;4.47;;
19384;SDS011;9828;54.122;17.974;2022-08-01T04:38:17;9.50;;;4.97;;
19384;SDS011;9828;54.122;17.974;2022-08-01T04:43:41;8.25;;;4.57;;
19384;SDS011;9828;54.122;17.974;2022-08-01T04:49:05;6.20;;;4.05;;
19384;SDS011;9828;54.122;17.974;2022-08-01T04:54:35;7.95;;;3.60;;
19384;SDS011;9828;54.122;17.974;2022-08-01T04:59:59;8.07;;;4.28;;
19384;SDS011;9828;54.122;17.974;2022-08-01T05:05:22;5.55;;;3.25;;
19384;SDS011;9828;54.122;17.974;2022-08-01T05:10:46;4.82;;;3.05;;
19384;SDS011;9828;54.122;17.974;2022-08-01T05:16:08;5.50;;;3.33;;
19384;SDS011;9828;54.122;17.974;2022-08-01T05:21:29;5.75;;;3.47;;
19384;SDS011;9828;54.122;17.974;2022-08-01T05:26:51;5.88;;;3.17;;
19384;SDS011;9828;54.122;17.974;2022-08-01T05:32:12;10.27;;;3.97;;
19384;SDS011;9828;54.122;17.974;2022-08-01T05:37:34;7.80;;;3.95;;
19384;SDS011;9828;54.122;17.974;2022-08-01T05:42:55;3.75;;;2.08;;
19384;SDS011;9828;54.122;17.974;2022-08-01T05:48:16;1.27;;;1.17;;
19384;SDS011;9828;54.122;17.974;2022-08-01T05:53:38;2.97;;;1.60;;
19384;SDS011;9828;54.122;17.974;2022-08-01T05:58:59;4.72;;;1.30;;
19384;SDS011;9828;54.122;17.974;2022-08-01T06:04:21;2.75;;;1.40;;
19384;SDS011;9828;54.122;17.974;2022-08-01T06:09:42;2.05;;;1.35;;
19384;SDS011;9828;54.122;17.974;2022-08-01T06:15:10;3.13;;;1.30;;
19384;SDS011;9828;54.122;17.974;2022-08-01T06:20:31;1.10;;;0.90;;
19384;SDS011;9828;54.122;17.974;2022-08-01T06:25:53;3.15;;;1.08;;
19384;SDS011;9828;54.122;17.974;2022-08-01T06:31:18;3.60;;;1.10;;
19384;SDS011;9828;54.122;17.974;2022-08-01T06:36:42;1.05;;;0.90;;
19384;SDS011;9828;54.122;17.974;2022-08-01T06:42:13;1.27;;;1.10;;
19384;SDS011;9828;54.122;17.974;2022-08-01T06:47:36;3.00;;;0.90;;
19384;SDS011;9828;54.122;17.974;2022-08-01T06:52:58;0.95;;;0.85;;
19384;SDS011;9828;54.122;17.974;2022-08-01T06:58:20;4.10;;;1.10;;
19384;SDS011;9828;54.122;17.974;2022-08-01T07:03:41;2.55;;;1.20;;
19384;SDS011;9828;54.122;17.974;2022-08-01T07:09:02;0.98;;;0.93;;
19384;SDS011;9828;54.122;17.974;2022-08-01T07:14:27;1.33;;;1.15;;
19384;SDS011;9828;54.122;17.974;2022-08-01T07:19:50;5.00;;;1.10;;
19384;SDS011;9828;54.122;17.974;2022-08-01T07:25:11;2.67;;;1.80;;
19384;SDS011;9828;54.122;17.974;2022-08-01T07:30:33;5.47;;;1.67;;
19384;SDS011;9828;54.122;17.974;2022-08-01T07:35:54;2.50;;;1.40;;
19384;SDS011;9828;54.122;17.974;2022-08-01T07:41:16;4.25;;;1.35;;
19384;SDS011;9828;54.122;17.974;2022-08-01T07:46:37;5.25;;;1.52;;
19384;SDS011;9828;54.122;17.974;2022-08-01T07:51:58;12.73;;;1.83;;
19384;SDS011;9828;54.122;17.974;2022-08-01T07:57:20;5.63;;;1.42;;
19384;SDS011;9828;54.122;17.974;2022-08-01T08:02:42;6.28;;;1.40;;
19384;SDS011;9828;54.122;17.974;2022-08-01T08:08:04;1.45;;;1.30;;
19384;SDS011;9828;54.122;17.974;2022-08-01T08:13:27;4.20;;;1.92;;
19384;SDS011;9828;54.122;17.974;2022-08-01T08:18:48;5.97;;;1.10;;
19384;SDS011;9828;54.122;17.974;2022-08-01T08:24:09;7.13;;;1.60;;
19384;SDS011;9828;54.122;17.974;2022-08-01T08:29:40;14.90;;;2.58;;
19384;SDS011;9828;54.122;17.974;2022-08-01T08:35:03;6.05;;;1.30;;
19384;SDS011;9828;54.122;17.974;2022-08-01T08:40:27;5.07;;;1.40;;
19384;SDS011;9828;54.122;17.974;2022-08-01T08:45:51;1.83;;;1.30;;
19384;SDS011;9828;54.122;17.974;2022-08-01T08:51:13;2.72;;;1.20;;
19384;SDS011;9828;54.122;17.974;2022-08-01T08:56:38;4.50;;;1.73;;
19384;SDS011;9828;54.122;17.974;2022-08-01T09:02:00;1.60;;;0.98;;
19384;SDS011;9828;54.122;17.974;2022-08-01T09:07:22;2.35;;;1.10;;
19384;SDS011;9828;54.122;17.974;2022-08-01T09:13:01;4.32;;;1.40;;
19384;SDS011;9828;54.122;17.974;2022-08-01T09:18:25;1.58;;;1.13;;
19384;SDS011;9828;54.122;17.974;2022-08-01T09:23:53;2.83;;;1.50;;
19384;SDS011;9828;54.122;17.974;2022-08-01T09:29:22;6.13;;;1.20;;
19384;SDS011;9828;54.122;17.974;2022-08-01T09:34:46;1.67;;;0.95;;
19384;SDS011;9828;54.122;17.974;2022-08-01T09:40:07;1.65;;;1.50;;
19384;SDS011;9828;54.122;17.974;2022-08-01T09:45:32;3.10;;;1.27;;
19384;SDS011;9828;54.122;17.974;2022-08-01T09:50:55;6.50;;;1.50;;
19384;SDS011;9828;54.122;17.974;2022-08-01T09:56:19;8.07;;;1.88;;
19384;SDS011;9828;54.122;17.974;2022-08-01T10:01:43;8.23;;;1.70;;
19384;SDS011;9828;54.122;17.974;2022-08-01T10:07:08;6.35;;;1.50;;
19384;SDS011;9828;54.122;17.974;2022-08-01T10:12:29;3.58;;;1.35;;
19384;SDS011;9828;54.122;17.974;2022-08-01T10:17:54;2.20;;;1.52;;
19384;SDS011;9828;54.122;17.974;2022-08-01T10:23:17;1.65;;;1.38;;
19384;SDS011;9828;54.122;17.974;2022-08-01T10:28:39;6.07;;;1.58;;
19384;SDS011;9828;54.122;17.974;2022-08-01T10:34:01;3.97;;;1.27;;
19384;SDS011;9828;54.122;17.974;2022-08-01T10:39:24;3.95;;;1.70;;
19384;SDS011;9828;54.122;17.974;2022-08-01T10:44:48;10.02;;;8.38;;
19384;SDS011;9828;54.122;17.974;2022-08-01T11:01:24;1.67;;;1.42;;
19384;SDS011;9828;54.122;17.974;2022-08-01T11:07:11;2.10;;;1.30;;
19384;SDS011;9828;54.122;17.974;2022-08-01T11:12:40;1.85;;;1.20;;
19384;SDS011;9828;54.122;17.974;2022-08-01T11:18:28;2.63;;;1.50;;
19384;SDS011;9828;54.122;17.974;2022-08-01T11:23:48;3.20;;;2.40;;
19384;SDS011;9828;54.122;17.974;2022-08-01T11:29:14;2.78;;;1.60;;
19384;SDS011;9828;54.122;17.974;2022-08-01T11:34:52;8.45;;;2.00;;
19384;SDS011;9828;54.122;17.974;2022-08-01T11:40:22;10.75;;;1.63;;
19384;SDS011;9828;54.122;17.974;2022-08-01T11:45:52;5.00;;;1.48;;
19384;SDS011;9828;54.122;17.974;2022-08-01T11:51:18;3.47;;;1.50;;
19384;SDS011;9828;54.122;17.974;2022-08-01T11:56:44;2.70;;;1.40;;
19384;SDS011;9828;54.122;17.974;2022-08-01T12:02:16;14.55;;;2.10;;
19384;SDS011;9828;54.122;17.974;2022-08-01T12:07:51;5.07;;;1.27;;
19384;SDS011;9828;54.122;17.974;2022-08-01T12:13:13;2.92;;;1.40;;
19384;SDS011;9828;54.122;17.974;2022-08-01T12:18:38;6.93;;;2.03;;
19384;SDS011;9828;54.122;17.974;2022-08-01T12:24:03;2.30;;;1.60;;
19384;SDS011;9828;54.122;17.974;2022-08-01T12:29:42;3.58;;;1.50;;
19384;SDS011;9828;54.122;17.974;2022-08-01T12:35:26;10.95;;;2.00;;
19384;SDS011;9828;54.122;17.974;2022-08-01T12:40:48;3.30;;;1.67;;
19384;SDS011;9828;54.122;17.974;2022-08-01T12:46:10;8.85;;;2.08;;
19384;SDS011;9828;54.122;17.974;2022-08-01T12:51:36;4.72;;;1.45;;
19384;SDS011;9828;54.122;17.974;2022-08-01T12:56:57;5.70;;;1.60;;
19384;SDS011;9828;54.122;17.974;2022-08-01T13:02:19;11.73;;;3.42;;
19384;SDS011;9828;54.122;17.974;2022-08-01T13:13:05;4.43;;;1.83;;
19384;SDS011;9828;54.122;17.974;2022-08-01T13:18:29;3.50;;;1.73;;
19384;SDS011;9828;54.122;17.974;2022-08-01T13:24:00;8.80;;;1.75;;
19384;SDS011;9828;54.122;17.974;2022-08-01T13:29:35;2.38;;;1.58;;
19384;SDS011;9828;54.122;17.974;2022-08-01T13:35:05;2.08;;;1.80;;
19384;SDS011;9828;54.122;17.974;2022-08-01T13:40:29;2.55;;;1.67;;
19384;SDS011;9828;54.122;17.974;2022-08-01T13:45:50;2.75;;;1.67;;
19384;SDS011;9828;54.122;17.974;2022-08-01T13:51:12;5.78;;;1.30;;
19384;SDS011;9828;54.122;17.974;2022-08-01T13:56:41;2.20;;;1.83;;
19384;SDS011;9828;54.122;17.974;2022-08-01T14:02:02;3.55;;;2.00;;
19384;SDS011;9828;54.122;17.974;2022-08-01T14:07:24;2.90;;;1.65;;
19384;SDS011;9828;54.122;17.974;2022-08-01T14:12:48;4.40;;;1.63;;
19384;SDS011;9828;54.122;17.974;2022-08-01T14:18:10;3.10;;;1.75;;
19384;SDS011;9828;54.122;17.974;2022-08-01T14:23:34;1.73;;;1.55;;
19384;SDS011;9828;54.122;17.974;2022-08-01T14:28:55;4.90;;;1.70;;
19384;SDS011;9828;54.122;17.974;2022-08-01T14:34:17;3.60;;;2.47;;
19384;SDS011;9828;54.122;17.974;2022-08-01T14:39:38;3.50;;;1.65;;
19384;SDS011;9828;54.122;17.974;2022-08-01T14:45:00;3.67;;;1.70;;
19384;SDS011;9828;54.122;17.974;2022-08-01T14:50:22;6.95;;;2.08;;
19384;SDS011;9828;54.122;17.974;2022-08-01T14:55:44;3.50;;;1.50;;
19384;SDS011;9828;54.122;17.974;2022-08-01T15:01:05;2.67;;;1.77;;
19384;SDS011;9828;54.122;17.974;2022-08-01T15:06:27;5.00;;;1.58;;
19384;SDS011;9828;54.122;17.974;2022-08-01T15:11:48;1.60;;;1.50;;
19384;SDS011;9828;54.122;17.974;2022-08-01T15:17:10;1.88;;;1.50;;
19384;SDS011;9828;54.122;17.974;2022-08-01T15:22:31;1.70;;;1.40;;
19384;SDS011;9828;54.122;17.974;2022-08-01T15:27:55;3.72;;;1.42;;
19384;SDS011;9828;54.122;17.974;2022-08-01T15:33:16;3.92;;;1.88;;
19384;SDS011;9828;54.122;17.974;2022-08-01T15:38:38;2.15;;;1.90;;
19384;SDS011;9828;54.122;17.974;2022-08-01T15:43:59;2.55;;;1.40;;
19384;SDS011;9828;54.122;17.974;2022-08-01T15:49:20;2.20;;;1.40;;
19384;SDS011;9828;54.122;17.974;2022-08-01T15:54:42;2.28;;;2.08;;
19384;SDS011;9828;54.122;17.974;2022-08-01T16:00:04;3.83;;;2.00;;
19384;SDS011;9828;54.122;17.974;2022-08-01T16:05:30;2.50;;;1.88;;
19384;SDS011;9828;54.122;17.974;2022-08-01T16:10:52;3.88;;;1.83;;
19384;SDS011;9828;54.122;17.974;2022-08-01T16:16:13;2.20;;;1.35;;
19384;SDS011;9828;54.122;17.974;2022-08-01T16:21:38;2.28;;;1.83;;
19384;SDS011;9828;54.122;17.974;2022-08-01T16:27:00;3.80;;;1.80;;
19384;SDS011;9828;54.122;17.974;2022-08-01T16:32:22;2.88;;;1.50;;
19384;SDS011;9828;54.122;17.974;2022-08-01T16:37:43;6.20;;;1.63;;
19384;SDS011;9828;54.122;17.974;2022-08-01T16:43:04;2.65;;;1.65;;
19384;SDS011;9828;54.122;17.974;2022-08-01T16:48:26;2.53;;;1.75;;
19384;SDS011;9828;54.122;17.974;2022-08-01T16:53:48;9.68;;;2.05;;
19384;SDS011;9828;54.122;17.974;2022-08-01T16:59:09;3.92;;;1.48;;
19384;SDS011;9828;54.122;17.974;2022-08-01T17:04:30;2.90;;;1.45;;
19384;SDS011;9828;54.122;17.974;2022-08-01T17:09:52;4.40;;;1.50;;
19384;SDS011;9828;54.122;17.974;2022-08-01T17:15:14;2.92;;;1.50;;
19384;SDS011;9828;54.122;17.974;2022-08-01T17:20:35;5.38;;;1.85;;
19384;SDS011;9828;54.122;17.974;2022-08-01T17:25:56;4.53;;;1.55;;
19384;SDS011;9828;54.122;17.974;2022-08-01T17:31:18;2.63;;;1.70;;
19384;SDS011;9828;54.122;17.974;2022-08-01T17:36:40;2.25;;;1.50;;
19384;SDS011;9828;54.122;17.974;2022-08-01T17:42:02;2.50;;;1.70;;
19384;SDS011;9828;54.122;17.974;2022-08-01T17:47:24;3.88;;;2.15;;
19384;SDS011;9828;54.122;17.974;2022-08-01T17:53:00;2.67;;;1.80;;
19384;SDS011;9828;54.122;17.974;2022-08-01T17:58:21;3.38;;;2.00;;
19384;SDS011;9828;54.122;17.974;2022-08-01T18:03:43;4.13;;;2.00;;
19384;SDS011;9828;54.122;17.974;2022-08-01T18:09:05;3.33;;;1.80;;
19384;SDS011;9828;54.122;17.974;2022-08-01T18:14:29;3.05;;;2.00;;
19384;SDS011;9828;54.122;17.974;2022-08-01T18:19:50;3.35;;;1.73;;
19384;SDS011;9828;54.122;17.974;2022-08-01T18:25:12;1.77;;;1.67;;
19384;SDS011;9828;54.122;17.974;2022-08-01T18:30:33;3.55;;;2.00;;
19384;SDS011;9828;54.122;17.974;2022-08-01T18:35:55;3.13;;;1.75;;
19384;SDS011;9828;54.122;17.974;2022-08-01T18:41:17;4.63;;;1.83;;
19384;SDS011;9828;54.122;17.974;2022-08-01T18:46:39;2.42;;;2.15;;
19384;SDS011;9828;54.122;17.974;2022-08-01T18:52:00;2.42;;;2.10;;
19384;SDS011;9828;54.122;17.974;2022-08-01T18:57:22;4.45;;;2.85;;
19384;SDS011;9828;54.122;17.974;2022-08-01T19:02:43;4.35;;;3.25;;
19384;SDS011;9828;54.122;17.974;2022-08-01T19:08:05;6.50;;;3.13;;
19384;SDS011;9828;54.122;17.974;2022-08-01T19:13:27;3.97;;;2.47;;
19384;SDS011;9828;54.122;17.974;2022-08-01T19:18:49;2.70;;;2.15;;
19384;SDS011;9828;54.122;17.974;2022-08-01T19:24:10;3.58;;;2.40;;
19384;SDS011;9828;54.122;17.974;2022-08-01T19:29:38;4.90;;;2.80;;
19384;SDS011;9828;54.122;17.974;2022-08-01T19:35:03;2.95;;;2.55;;
19384;SDS011;9828;54.122;17.974;2022-08-01T19:40:27;5.70;;;3.30;;
19384;SDS011;9828;54.122;17.974;2022-08-01T19:45:50;5.40;;;4.13;;
19384;SDS011;9828;54.122;17.974;2022-08-01T19:51:13;3.95;;;2.97;;
19384;SDS011;9828;54.122;17.974;2022-08-01T19:56:37;5.97;;;3.33;;
19384;SDS011;9828;54.122;17.974;2022-08-01T20:02:00;5.07;;;3.22;;
19384;SDS011;9828;54.122;17.974;2022-08-01T20:07:23;4.15;;;3.50;;
19384;SDS011;9828;54.122;17.974;2022-08-01T20:12:44;5.60;;;3.83;;
19384;SDS011;9828;54.122;17.974;2022-08-01T20:18:07;5.43;;;3.40;;
19384;SDS011;9828;54.122;17.974;2022-08-01T20:23:28;4.75;;;3.50;;
19384;SDS011;9828;54.122;17.974;2022-08-01T20:28:52;3.53;;;2.80;;
19384;SDS011;9828;54.122;17.974;2022-08-01T20:34:15;5.30;;;3.00;;
19384;SDS011;9828;54.122;17.974;2022-08-01T20:39:40;9.25;;;3.97;;
19384;SDS011;9828;54.122;17.974;2022-08-01T20:45:03;5.30;;;4.03;;
19384;SDS011;9828;54.122;17.974;2022-08-01T20:50:25;6.38;;;4.15;;
19384;SDS011;9828;54.122;17.974;2022-08-01T21:18:35;5.05;;;2.72;;
19384;SDS011;9828;54.122;17.974;2022-08-01T21:23:59;4.70;;;3.03;;
19384;SDS011;9828;54.122;17.974;2022-08-01T21:29:31;5.55;;;2.75;;
19384;SDS011;9828;54.122;17.974;2022-08-01T21:34:52;5.50;;;2.53;;
19384;SDS011;9828;54.122;17.974;2022-08-01T21:40:18;3.53;;;2.47;;
19384;SDS011;9828;54.122;17.974;2022-08-01T21:45:41;3.25;;;2.20;;
19384;SDS011;9828;54.122;17.974;2022-08-01T21:51:50;3.72;;;2.22;;
19384;SDS011;9828;54.122;17.974;2022-08-01T22:02:31;2.55;;;2.00;;
19384;SDS011;9828;54.122;17.974;2022-08-01T22:08:01;3.72;;;2.13;;
19384;SDS011;9828;54.122;17.974;2022-08-01T22:13:24;4.97;;;2.25;;
19384;SDS011;9828;54.122;17.974;2022-08-01T22:18:45;4.88;;;2.10;;
19384;SDS011;9828;54.122;17.974;2022-08-01T22:24:08;4.13;;;2.00;;
19384;SDS011;9828;54.122;17.974;2022-08-01T22:29:29;3.28;;;1.88;;
19384;SDS011;9828;54.122;17.974;2022-08-01T22:34:52;2.40;;;1.80;;
19384;SDS011;9828;54.122;17.974;2022-08-01T22:40:14;1.67;;;1.45;;
19384;SDS011;9828;54.122;17.974;2022-08-01T22:45:41;2.97;;;1.40;;
19384;SDS011;9828;54.122;17.974;2022-08-01T22:56:53;3.10;;;1.50;;
19384;SDS011;9828;54.122;17.974;2022-08-01T23:02:15;2.10;;;1.75;;
19384;SDS011;9828;54.122;17.974;2022-08-01T23:07:44;2.13;;;1.92;;
19384;SDS011;9828;54.122;17.974;2022-08-01T23:13:09;4.47;;;1.90;;
19384;SDS011;9828;54.122;17.974;2022-08-01T23:18:31;2.22;;;1.83;;
19384;SDS011;9828;54.122;17.974;2022-08-01T23:23:53;2.22;;;1.77;;
19384;SDS011;9828;54.122;17.974;2022-08-01T23:29:16;4.50;;;2.00;;
19384;SDS011;9828;54.122;17.974;2022-08-01T23:34:37;3.85;;;1.65;;
19384;SDS011;9828;54.122;17.974;2022-08-01T23:39:58;2.65;;;1.95;;
19384;SDS011;9828;54.122;17.974;2022-08-01T23:45:20;2.20;;;1.98;;
19384;SDS011;9828;54.122;17.974;2022-08-01T23:50:42;1.98;;;1.60;;
19384;SDS011;9828;54.122;17.974;2022-08-01T23:56:03;2.08;;;1.88;;
